createdAt,value
2018-06-04T00:00:58.302Z,980.98
2018-06-04T00:01:58.245Z,981.00
2018-06-04T00:02:58.192Z,981.04
2018-06-04T00:03:58.138Z,981.04
2018-06-04T00:04:58.091Z,981.01
2018-06-04T00:05:58.039Z,980.98
2018-06-04T00:06:57.979Z,980.97
2018-06-04T00:07:57.925Z,980.98
2018-06-04T00:08:57.871Z,980.95
2018-06-04T00:09:57.816Z,980.94
2018-06-04T00:10:57.764Z,980.97
2018-06-04T00:11:57.709Z,980.95
2018-06-04T00:12:57.655Z,980.98
2018-06-04T00:13:57.603Z,980.97
2018-06-04T00:14:57.549Z,980.95
2018-06-04T00:15:57.496Z,980.94
2018-06-04T00:16:57.517Z,980.89
2018-06-04T00:17:57.387Z,980.90
2018-06-04T00:18:57.335Z,980.91
2018-06-04T00:19:57.279Z,980.89
2018-06-04T00:20:57.229Z,980.83
2018-06-04T00:21:57.173Z,980.84
2018-06-04T00:22:57.119Z,980.85
2018-06-04T00:23:57.066Z,980.86
2018-06-04T00:24:57.013Z,980.83
2018-06-04T00:25:56.958Z,980.84
2018-06-04T00:26:56.905Z,980.83
2018-06-04T00:27:56.849Z,980.81
2018-06-04T00:28:56.801Z,980.82
2018-06-04T00:29:56.746Z,980.82
2018-06-04T00:30:56.692Z,980.80
2018-06-04T00:31:56.635Z,980.76
2018-06-04T00:32:56.582Z,980.73
2018-06-04T00:33:56.527Z,980.77
2018-06-04T00:34:56.474Z,980.71
2018-06-04T00:35:56.421Z,980.72
2018-06-04T00:36:56.364Z,980.69
2018-06-04T00:37:56.319Z,980.68
2018-06-04T00:38:56.337Z,980.64
2018-06-04T00:39:56.203Z,980.66
2018-06-04T00:40:56.149Z,980.64
2018-06-04T00:41:56.097Z,980.62
2018-06-04T00:42:56.043Z,980.67
2018-06-04T00:43:55.993Z,980.62
2018-06-04T00:44:55.936Z,980.62
2018-06-04T00:45:55.882Z,980.61
2018-06-04T00:46:55.827Z,980.62
2018-06-04T00:47:55.774Z,980.60
2018-06-04T00:48:55.720Z,980.60
2018-06-04T00:49:55.667Z,980.58
2018-06-04T00:50:55.613Z,980.54
2018-06-04T00:51:55.558Z,980.52
2018-06-04T00:52:55.506Z,980.58
2018-06-04T00:53:55.451Z,980.53
2018-06-04T00:54:55.398Z,980.55
2018-06-04T00:55:55.342Z,980.53
2018-06-04T00:56:55.293Z,980.51
2018-06-04T00:57:55.235Z,980.52
2018-06-04T00:58:55.185Z,980.52
2018-06-04T00:59:55.128Z,980.53
2018-06-04T01:00:55.074Z,980.51
2018-06-04T01:01:55.022Z,980.57
2018-06-04T01:02:54.969Z,980.52
2018-06-04T01:03:54.912Z,980.52
2018-06-04T01:04:54.858Z,980.51
2018-06-04T01:05:54.806Z,980.53
2018-06-04T01:06:54.751Z,980.52
2018-06-04T01:07:54.697Z,980.51
2018-06-04T01:08:54.643Z,980.50
2018-06-04T01:09:54.590Z,980.60
2018-06-04T01:10:54.536Z,980.57
2018-06-04T01:11:54.481Z,980.56
2018-06-04T01:12:54.430Z,980.57
2018-06-04T01:13:54.374Z,980.62
2018-06-04T01:14:54.321Z,980.57
2018-06-04T01:15:54.269Z,980.58
2018-06-04T01:16:54.210Z,980.56
2018-06-04T01:17:54.159Z,980.56
2018-06-04T01:18:54.103Z,980.55
2018-06-04T01:19:54.048Z,980.54
2018-06-04T01:20:53.995Z,980.56
2018-06-04T01:21:53.941Z,980.54
2018-06-04T01:22:53.888Z,980.51
2018-06-04T01:23:53.831Z,980.52
2018-06-04T01:24:53.781Z,980.53
2018-06-04T01:25:53.731Z,980.55
2018-06-04T01:26:53.672Z,980.58
2018-06-04T01:27:53.616Z,980.56
2018-06-04T01:28:53.562Z,980.55
2018-06-04T01:29:53.509Z,980.57
2018-06-04T01:30:53.452Z,980.54
2018-06-04T01:31:53.399Z,980.56
2018-06-04T01:32:53.346Z,980.55
2018-06-04T01:33:53.292Z,980.52
2018-06-04T01:34:53.238Z,980.47
2018-06-04T01:35:53.188Z,980.46
2018-06-04T01:36:53.132Z,980.46
2018-06-04T01:37:53.077Z,980.47
2018-06-04T01:38:53.021Z,980.44
2018-06-04T01:39:52.965Z,980.48
2018-06-04T01:40:52.912Z,980.46
2018-06-04T01:41:52.860Z,980.48
2018-06-04T01:42:52.805Z,980.48
2018-06-04T01:43:52.755Z,980.42
2018-06-04T01:44:52.695Z,980.38
2018-06-04T01:45:52.642Z,980.43
2018-06-04T01:46:52.590Z,980.44
2018-06-04T01:47:52.535Z,980.40
2018-06-04T01:48:52.481Z,980.45
2018-06-04T01:49:52.425Z,980.43
2018-06-04T01:50:52.371Z,980.47
2018-06-04T01:51:52.316Z,980.45
2018-06-04T01:52:52.261Z,980.47
2018-06-04T01:53:52.208Z,980.45
2018-06-04T01:54:52.154Z,980.40
2018-06-04T01:55:52.102Z,980.40
2018-06-04T01:56:52.045Z,980.41
2018-06-04T01:57:51.992Z,980.37
2018-06-04T01:58:51.938Z,980.38
2018-06-04T01:59:51.882Z,980.36
2018-06-04T02:00:51.827Z,980.37
2018-06-04T02:01:51.777Z,980.35
2018-06-04T02:02:51.719Z,980.35
2018-06-04T02:03:51.665Z,980.33
2018-06-04T02:04:51.611Z,980.30
2018-06-04T02:05:51.556Z,980.27
2018-06-04T02:06:51.501Z,980.29
2018-06-04T02:07:51.448Z,980.26
2018-06-04T02:08:51.391Z,980.23
2018-06-04T02:09:51.339Z,980.27
2018-06-04T02:10:51.285Z,980.23
2018-06-04T02:11:51.230Z,980.26
2018-06-04T02:12:51.174Z,980.22
2018-06-04T02:13:51.121Z,980.22
2018-06-04T02:14:51.067Z,980.23
2018-06-04T02:15:51.013Z,980.25
2018-06-04T02:16:50.957Z,980.20
2018-06-04T02:17:50.905Z,980.22
2018-06-04T02:18:50.852Z,980.23
2018-06-04T02:19:50.793Z,980.25
2018-06-04T02:20:50.739Z,980.29
2018-06-04T02:21:50.695Z,980.29
2018-06-04T02:22:50.633Z,980.27
2018-06-04T02:23:50.574Z,980.25
2018-06-04T02:24:50.525Z,980.28
2018-06-04T02:25:50.468Z,980.26
2018-06-04T02:26:50.412Z,980.29
2018-06-04T02:27:50.435Z,980.26
2018-06-04T02:28:50.306Z,980.28
2018-06-04T02:29:50.248Z,980.28
2018-06-04T02:30:50.198Z,980.31
2018-06-04T02:31:50.139Z,980.23
2018-06-04T02:32:50.088Z,980.20
2018-06-04T02:33:50.031Z,980.20
2018-06-04T02:34:49.977Z,980.17
2018-06-04T02:35:49.920Z,980.21
2018-06-04T02:36:49.866Z,980.20
2018-06-04T02:37:49.811Z,980.14
2018-06-04T02:38:49.757Z,980.12
2018-06-04T02:39:49.700Z,980.12
2018-06-04T02:40:49.649Z,980.13
2018-06-04T02:41:49.594Z,980.11
2018-06-04T02:42:49.538Z,980.13
2018-06-04T02:43:49.487Z,980.14
2018-06-04T02:44:49.433Z,980.13
2018-06-04T02:45:49.434Z,980.14
2018-06-04T02:46:49.320Z,980.10
2018-06-04T02:47:49.263Z,980.15
2018-06-04T02:48:49.215Z,980.16
2018-06-04T02:49:49.209Z,980.19
2018-06-04T02:50:49.101Z,980.16
2018-06-04T02:51:49.045Z,980.16
2018-06-04T02:52:48.991Z,980.12
2018-06-04T02:53:48.935Z,980.16
2018-06-04T02:54:48.883Z,980.13
2018-06-04T02:55:48.832Z,980.18
2018-06-04T02:56:48.773Z,980.18
2018-06-04T02:57:48.718Z,980.17
2018-06-04T02:58:48.664Z,980.19
2018-06-04T02:59:48.607Z,980.18
2018-06-04T03:00:48.555Z,980.20
2018-06-04T03:01:48.499Z,980.19
2018-06-04T03:02:48.445Z,980.17
2018-06-04T03:03:48.388Z,980.18
2018-06-04T03:04:48.334Z,980.16
2018-06-04T03:05:48.280Z,980.20
2018-06-04T03:06:48.227Z,980.16
2018-06-04T03:07:48.169Z,980.18
2018-06-04T03:08:48.116Z,980.19
2018-06-04T03:09:48.061Z,980.19
2018-06-04T03:10:48.006Z,980.15
2018-06-04T03:11:47.951Z,980.17
2018-06-04T03:12:47.903Z,980.19
2018-06-04T03:13:47.842Z,980.13
2018-06-04T03:14:47.789Z,980.15
2018-06-04T03:15:47.731Z,980.14
2018-06-04T03:16:47.676Z,980.16
2018-06-04T03:17:47.634Z,980.19
2018-06-04T03:18:47.567Z,980.21
2018-06-04T03:19:47.514Z,980.20
2018-06-04T03:20:47.456Z,980.21
2018-06-04T03:21:47.402Z,980.21
2018-06-04T03:22:47.438Z,980.22
2018-06-04T03:23:47.294Z,980.21
2018-06-04T03:24:47.238Z,980.22
2018-06-04T03:25:47.184Z,980.23
2018-06-04T03:26:47.127Z,980.22
2018-06-04T03:27:47.073Z,980.21
2018-06-04T03:28:47.017Z,980.24
2018-06-04T03:29:46.964Z,980.19
2018-06-04T03:30:46.907Z,980.21
2018-06-04T03:31:46.852Z,980.21
2018-06-04T03:32:46.797Z,980.21
2018-06-04T03:33:46.742Z,980.24
2018-06-04T03:34:46.690Z,980.26
2018-06-04T03:35:46.634Z,980.29
2018-06-04T03:36:46.578Z,980.30
2018-06-04T03:37:46.523Z,980.31
2018-06-04T03:38:46.467Z,980.30
2018-06-04T03:39:46.414Z,980.33
2018-06-04T03:40:46.357Z,980.33
2018-06-04T03:41:46.303Z,980.39
2018-06-04T03:42:46.248Z,980.37
2018-06-04T03:43:46.193Z,980.37
2018-06-04T03:44:46.139Z,980.39
2018-06-04T03:45:46.083Z,980.33
2018-06-04T03:46:46.034Z,980.36
2018-06-04T03:47:45.974Z,980.37
2018-06-04T03:48:45.919Z,980.42
2018-06-04T03:49:45.865Z,980.38
2018-06-04T03:50:45.816Z,980.41
2018-06-04T03:51:45.753Z,980.37
2018-06-04T03:52:45.698Z,980.44
2018-06-04T03:53:45.644Z,980.42
2018-06-04T03:54:45.590Z,980.42
2018-06-04T03:55:45.535Z,980.41
2018-06-04T03:56:45.484Z,980.40
2018-06-04T03:57:45.424Z,980.39
2018-06-04T03:58:45.369Z,980.42
2018-06-04T03:59:45.316Z,980.42
2018-06-04T04:00:45.260Z,980.38
2018-06-04T04:01:45.234Z,980.44
2018-06-04T04:02:45.151Z,980.42
2018-06-04T04:03:45.096Z,980.41
2018-06-04T04:04:45.041Z,980.37
2018-06-04T04:05:44.989Z,980.36
2018-06-04T04:06:44.975Z,980.38
2018-06-04T04:07:44.878Z,980.37
2018-06-04T04:08:44.821Z,980.39
2018-06-04T04:09:44.767Z,980.38
2018-06-04T04:10:44.714Z,980.35
2018-06-04T04:11:44.658Z,980.36
2018-06-04T04:12:44.605Z,980.40
2018-06-04T04:13:44.551Z,980.41
2018-06-04T04:14:44.494Z,980.46
2018-06-04T04:15:44.438Z,980.47
2018-06-04T04:16:44.382Z,980.46
2018-06-04T04:17:44.329Z,980.44
2018-06-04T04:18:44.275Z,980.47
2018-06-04T04:19:44.216Z,980.45
2018-06-04T04:20:44.163Z,980.46
2018-06-04T04:21:44.108Z,980.44
2018-06-04T04:22:44.053Z,980.42
2018-06-04T04:23:44.001Z,980.45
2018-06-04T04:24:43.943Z,980.42
2018-06-04T04:25:43.889Z,980.44
2018-06-04T04:26:43.833Z,980.41
2018-06-04T04:27:43.792Z,980.44
2018-06-04T04:28:43.723Z,980.47
2018-06-04T04:29:43.667Z,980.43
2018-06-04T04:30:43.613Z,980.47
2018-06-04T04:31:43.558Z,980.48
2018-06-04T04:32:43.504Z,980.54
2018-06-04T04:33:43.449Z,980.52
2018-06-04T04:34:43.397Z,980.49
2018-06-04T04:35:43.337Z,980.53
2018-06-04T04:36:43.283Z,980.55
2018-06-04T04:37:43.240Z,980.56
2018-06-04T04:38:43.172Z,980.55
2018-06-04T04:39:43.116Z,980.58
2018-06-04T04:40:43.063Z,980.62
2018-06-04T04:41:43.007Z,980.62
2018-06-04T04:42:42.953Z,980.58
2018-06-04T04:43:42.897Z,980.58
2018-06-04T04:44:42.841Z,980.58
2018-06-04T04:45:42.788Z,980.59
2018-06-04T04:46:42.756Z,980.58
2018-06-04T04:47:42.678Z,980.55
2018-06-04T04:48:42.624Z,980.54
2018-06-04T04:49:42.568Z,980.56
2018-06-04T04:50:42.514Z,980.54
2018-06-04T04:51:42.460Z,980.55
2018-06-04T04:52:42.408Z,980.56
2018-06-04T04:53:42.351Z,980.61
2018-06-04T04:54:42.295Z,980.61
2018-06-04T04:55:42.241Z,980.63
2018-06-04T04:56:42.190Z,980.64
2018-06-04T04:57:42.131Z,980.61
2018-06-04T04:58:42.078Z,980.66
2018-06-04T04:59:42.066Z,980.67
2018-06-04T05:00:41.969Z,980.63
2018-06-04T05:01:41.913Z,980.60
2018-06-04T05:02:41.862Z,980.63
2018-06-04T05:03:41.805Z,980.61
2018-06-04T05:04:41.751Z,980.56
2018-06-04T05:05:41.697Z,980.61
2018-06-04T05:06:41.644Z,980.59
2018-06-04T05:07:41.587Z,980.60
2018-06-04T05:08:41.533Z,980.57
2018-06-04T05:09:41.482Z,980.57
2018-06-04T05:10:41.428Z,980.58
2018-06-04T05:11:41.372Z,980.53
2018-06-04T05:12:41.320Z,980.54
2018-06-04T05:13:41.271Z,980.59
2018-06-04T05:14:41.212Z,980.57
2018-06-04T05:15:41.156Z,980.55
2018-06-04T05:16:41.104Z,980.57
2018-06-04T05:17:41.049Z,980.57
2018-06-04T05:18:40.994Z,980.57
2018-06-04T05:19:40.940Z,980.58
2018-06-04T05:20:40.886Z,980.60
2018-06-04T05:21:40.832Z,980.61
2018-06-04T05:22:40.780Z,980.62
2018-06-04T05:23:40.725Z,980.60
2018-06-04T05:24:40.670Z,980.61
2018-06-04T05:25:40.623Z,980.65
2018-06-04T05:26:40.565Z,980.57
2018-06-04T05:27:40.510Z,980.55
2018-06-04T05:28:40.457Z,980.53
2018-06-04T05:29:40.406Z,980.53
2018-06-04T05:30:40.348Z,980.47
2018-06-04T05:31:40.294Z,980.45
2018-06-04T05:32:40.240Z,980.45
2018-06-04T05:33:40.188Z,980.44
2018-06-04T05:34:40.134Z,980.47
2018-06-04T05:35:40.079Z,980.44
2018-06-04T05:36:40.028Z,980.43
2018-06-04T05:37:39.977Z,980.41
2018-06-04T05:38:39.920Z,980.40
2018-06-04T05:39:39.866Z,980.40
2018-06-04T05:40:39.815Z,980.39
2018-06-04T05:41:39.760Z,980.39
2018-06-04T05:42:39.707Z,980.43
2018-06-04T05:43:39.652Z,980.41
2018-06-04T05:44:39.598Z,980.41
2018-06-04T05:45:39.546Z,980.43
2018-06-04T05:46:39.495Z,980.43
2018-06-04T05:47:39.439Z,980.43
2018-06-04T05:48:39.386Z,980.42
2018-06-04T05:49:39.337Z,980.40
2018-06-04T05:50:39.282Z,980.43
2018-06-04T05:51:39.230Z,980.45
2018-06-04T05:52:39.176Z,980.42
2018-06-04T05:53:39.122Z,980.42
2018-06-04T05:54:39.075Z,980.41
2018-06-04T05:55:39.017Z,980.39
2018-06-04T05:56:38.964Z,980.36
2018-06-04T05:57:38.912Z,980.33
2018-06-04T05:58:38.860Z,980.31
2018-06-04T05:59:38.806Z,980.30
2018-06-04T06:00:38.751Z,980.30
2018-06-04T06:01:38.701Z,980.26
2018-06-04T06:02:38.648Z,980.26
2018-06-04T06:03:38.624Z,980.29
2018-06-04T06:04:38.547Z,980.30
2018-06-04T06:05:38.491Z,980.31
2018-06-04T06:06:38.440Z,980.29
2018-06-04T06:07:38.386Z,980.26
2018-06-04T06:08:38.331Z,980.28
2018-06-04T06:09:38.281Z,980.26
2018-06-04T06:10:38.228Z,980.30
2018-06-04T06:11:38.175Z,980.25
2018-06-04T06:12:38.125Z,980.23
2018-06-04T06:13:38.075Z,980.18
2018-06-04T06:14:38.023Z,980.18
2018-06-04T06:15:37.971Z,980.13
2018-06-04T06:16:37.915Z,980.12
2018-06-04T06:17:37.863Z,980.09
2018-06-04T06:18:37.810Z,980.09
2018-06-04T06:19:37.760Z,980.04
2018-06-04T06:20:37.714Z,980.03
2018-06-04T06:21:37.656Z,980.04
2018-06-04T06:22:37.604Z,980.00
2018-06-04T06:23:37.552Z,980.03
2018-06-04T06:24:37.500Z,980.03
2018-06-04T06:25:37.447Z,979.98
2018-06-04T06:26:37.417Z,980.01
2018-06-04T06:27:37.346Z,980.03
2018-06-04T06:28:37.293Z,979.97
2018-06-04T06:29:37.239Z,979.98
2018-06-04T06:30:37.190Z,979.98
2018-06-04T06:31:37.144Z,979.98
2018-06-04T06:32:37.084Z,980.00
2018-06-04T06:33:37.033Z,980.00
2018-06-04T06:34:36.984Z,980.01
2018-06-04T06:35:36.930Z,980.01
2018-06-04T06:36:36.878Z,979.94
2018-06-04T06:37:36.838Z,979.97
2018-06-04T06:38:36.776Z,979.92
2018-06-04T06:39:36.724Z,979.95
2018-06-04T06:40:36.673Z,979.91
2018-06-04T06:41:36.622Z,979.93
2018-06-04T06:42:36.572Z,979.88
2018-06-04T06:43:36.521Z,979.87
2018-06-04T06:44:36.468Z,979.84
2018-06-04T06:45:36.417Z,979.81
2018-06-04T06:46:36.366Z,979.81
2018-06-04T06:47:36.314Z,979.78
2018-06-04T06:48:36.265Z,979.77
2018-06-04T06:49:36.213Z,979.74
2018-06-04T06:50:36.166Z,979.79
2018-06-04T06:51:36.116Z,979.79
2018-06-04T06:52:36.060Z,979.75
2018-06-04T06:53:36.008Z,979.80
2018-06-04T06:54:35.958Z,979.79
2018-06-04T06:55:35.905Z,979.78
2018-06-04T06:56:35.855Z,979.80
2018-06-04T06:57:35.805Z,979.80
2018-06-04T06:58:35.754Z,979.77
2018-06-04T06:59:35.703Z,979.75
2018-06-04T07:00:35.653Z,979.79
2018-06-04T07:01:35.601Z,979.76
2018-06-04T07:02:35.551Z,979.74
2018-06-04T07:03:35.500Z,979.69
2018-06-04T07:04:35.451Z,979.71
2018-06-04T07:05:35.400Z,979.73
2018-06-04T07:06:35.349Z,979.72
2018-06-04T07:07:35.346Z,979.72
2018-06-04T07:08:35.246Z,979.64
2018-06-04T07:09:35.198Z,979.66
2018-06-04T07:10:35.146Z,979.66
2018-06-04T07:11:35.101Z,979.64
2018-06-04T07:12:35.045Z,979.68
2018-06-04T07:13:34.992Z,979.72
2018-06-04T07:14:34.978Z,979.72
2018-06-04T07:15:34.895Z,979.70
2018-06-04T07:16:34.841Z,979.64
2018-06-04T07:17:34.793Z,979.67
2018-06-04T07:18:34.742Z,979.60
2018-06-04T07:19:34.694Z,979.58
2018-06-04T07:20:34.655Z,979.67
2018-06-04T07:21:34.592Z,979.63
2018-06-04T07:22:34.540Z,979.68
2018-06-04T07:23:34.492Z,979.61
2018-06-04T07:24:34.440Z,979.60
2018-06-04T07:25:34.390Z,979.57
2018-06-04T07:26:34.340Z,979.57
2018-06-04T07:27:34.291Z,979.54
2018-06-04T07:28:34.239Z,979.50
2018-06-04T07:29:34.191Z,979.50
2018-06-04T07:30:34.139Z,979.54
2018-06-04T07:31:34.089Z,979.56
2018-06-04T07:32:34.043Z,979.56
2018-06-04T07:33:33.994Z,979.63
2018-06-04T07:34:33.939Z,979.57
2018-06-04T07:35:33.895Z,979.57
2018-06-04T07:36:33.840Z,979.55
2018-06-04T07:37:33.791Z,979.56
2018-06-04T07:38:33.741Z,979.56
2018-06-04T07:39:33.690Z,979.51
2018-06-04T07:40:33.641Z,979.48
2018-06-04T07:41:33.597Z,979.48
2018-06-04T07:42:33.541Z,979.52
2018-06-04T07:43:33.490Z,979.55
2018-06-04T07:44:33.445Z,979.53
2018-06-04T07:45:33.394Z,979.49
2018-06-04T07:46:33.354Z,979.48
2018-06-04T07:47:33.295Z,979.49
2018-06-04T07:48:33.244Z,979.51
2018-06-04T07:49:33.196Z,979.49
2018-06-04T07:50:33.147Z,979.45
2018-06-04T07:51:33.101Z,979.42
2018-06-04T07:52:33.050Z,979.42
2018-06-04T07:53:32.999Z,979.45
2018-06-04T07:54:32.953Z,979.42
2018-06-04T07:55:32.899Z,979.40
2018-06-04T07:56:32.850Z,979.39
2018-06-04T07:57:32.809Z,979.41
2018-06-04T07:58:32.753Z,979.43
2018-06-04T07:59:32.706Z,979.40
2018-06-04T08:00:32.652Z,979.42
2018-06-04T08:01:32.604Z,979.41
2018-06-04T08:02:32.558Z,979.40
2018-06-04T08:03:32.506Z,979.37
2018-06-04T08:04:32.458Z,979.35
2018-06-04T08:05:32.409Z,979.34
2018-06-04T08:06:32.406Z,979.39
2018-06-04T08:07:32.313Z,979.38
2018-06-04T08:08:32.263Z,979.36
2018-06-04T08:09:32.216Z,979.42
2018-06-04T08:10:32.165Z,979.34
2018-06-04T08:11:32.118Z,979.34
2018-06-04T08:12:32.068Z,979.30
2018-06-04T08:13:32.022Z,979.31
2018-06-04T08:14:31.973Z,979.26
2018-06-04T08:15:31.928Z,979.26
2018-06-04T08:16:31.878Z,979.27
2018-06-04T08:17:31.833Z,979.24
2018-06-04T08:18:31.781Z,979.26
2018-06-04T08:19:31.732Z,979.24
2018-06-04T08:20:31.684Z,979.28
2018-06-04T08:21:31.636Z,979.22
2018-06-04T08:22:31.588Z,979.22
2018-06-04T08:23:31.540Z,979.21
2018-06-04T08:24:31.492Z,979.16
2018-06-04T08:25:31.445Z,979.18
2018-06-04T08:26:31.398Z,979.15
2018-06-04T08:27:31.352Z,979.17
2018-06-04T08:28:31.302Z,979.17
2018-06-04T08:29:31.278Z,979.14
2018-06-04T08:30:31.209Z,979.16
2018-06-04T08:31:31.158Z,979.15
2018-06-04T08:32:31.115Z,979.15
2018-06-04T08:33:31.064Z,979.09
2018-06-04T08:34:31.018Z,979.13
2018-06-04T08:35:30.970Z,979.08
2018-06-04T08:36:30.925Z,979.14
2018-06-04T08:37:30.878Z,979.09
2018-06-04T08:38:30.845Z,979.03
2018-06-04T08:39:30.780Z,979.06
2018-06-04T08:40:30.733Z,979.03
2018-06-04T08:41:30.687Z,979.02
2018-06-04T08:42:30.646Z,979.03
2018-06-04T08:43:30.592Z,979.03
2018-06-04T08:44:30.554Z,979.06
2018-06-04T08:45:30.506Z,978.98
2018-06-04T08:46:30.452Z,979.01
2018-06-04T08:47:30.405Z,978.95
2018-06-04T08:48:30.361Z,979.00
2018-06-04T08:49:30.313Z,978.93
2018-06-04T08:50:30.265Z,978.98
2018-06-04T08:51:30.218Z,978.93
2018-06-04T08:52:30.171Z,978.97
2018-06-04T08:53:30.126Z,978.93
2018-06-04T08:54:30.079Z,978.96
2018-06-04T08:55:30.032Z,978.97
2018-06-04T08:56:29.986Z,978.89
2018-06-04T08:57:29.940Z,978.89
2018-06-04T08:58:29.892Z,978.85
2018-06-04T08:59:29.845Z,978.89
2018-06-04T09:00:29.804Z,978.87
2018-06-04T09:01:29.754Z,978.86
2018-06-04T09:02:29.710Z,978.88
2018-06-04T09:03:29.661Z,978.83
2018-06-04T09:04:29.614Z,978.77
2018-06-04T09:05:29.571Z,978.73
2018-06-04T09:06:29.524Z,978.63
2018-06-04T09:07:29.479Z,978.68
2018-06-04T09:08:29.429Z,978.73
2018-06-04T09:09:29.384Z,978.64
2018-06-04T09:10:29.342Z,978.65
2018-06-04T09:11:29.293Z,978.62
2018-06-04T09:12:29.246Z,978.60
2018-06-04T09:13:29.201Z,978.64
2018-06-04T09:14:29.155Z,978.65
2018-06-04T09:15:29.107Z,978.69
2018-06-04T09:16:29.067Z,978.73
2018-06-04T09:17:29.015Z,978.71
2018-06-04T09:18:28.971Z,978.75
2018-06-04T09:19:28.926Z,978.69
2018-06-04T09:20:28.878Z,978.66
2018-06-04T09:21:28.836Z,978.61
2018-06-04T09:22:28.791Z,978.65
2018-06-04T09:23:28.739Z,978.68
2018-06-04T09:24:28.695Z,978.62
2018-06-04T09:25:28.652Z,978.63
2018-06-04T09:26:28.605Z,978.61
2018-06-04T09:27:28.560Z,978.62
2018-06-04T09:28:28.517Z,978.65
2018-06-04T09:29:28.468Z,978.66
2018-06-04T09:30:28.423Z,978.62
2018-06-04T09:31:28.376Z,978.61
2018-06-04T09:32:28.333Z,978.59
2018-06-04T09:33:28.291Z,978.56
2018-06-04T09:34:28.242Z,978.52
2018-06-04T09:35:28.202Z,978.52
2018-06-04T09:36:28.153Z,978.52
2018-06-04T09:37:28.107Z,978.53
2018-06-04T09:38:28.074Z,978.48
2018-06-04T09:39:28.018Z,978.50
2018-06-04T09:40:27.973Z,978.54
2018-06-04T09:41:27.928Z,978.44
2018-06-04T09:42:27.883Z,978.48
2018-06-04T09:43:27.843Z,978.48
2018-06-04T09:44:27.792Z,978.47
2018-06-04T09:45:27.750Z,978.41
2018-06-04T09:46:27.708Z,978.41
2018-06-04T09:47:27.695Z,978.47
2018-06-04T09:48:27.612Z,978.46
2018-06-04T09:49:27.572Z,978.41
2018-06-04T09:50:27.525Z,978.43
2018-06-04T09:51:27.479Z,978.41
2018-06-04T09:52:27.440Z,978.35
2018-06-04T09:53:27.389Z,978.39
2018-06-04T09:54:27.344Z,978.35
2018-06-04T09:55:27.300Z,978.38
2018-06-04T09:56:27.257Z,978.41
2018-06-04T09:57:27.211Z,978.36
2018-06-04T09:58:27.170Z,978.33
2018-06-04T09:59:27.121Z,978.34
2018-06-04T10:00:27.077Z,978.33
2018-06-04T10:01:27.032Z,978.31
2018-06-04T10:02:26.987Z,978.27
2018-06-04T10:03:26.946Z,978.28
2018-06-04T10:04:26.897Z,978.31
2018-06-04T10:05:26.855Z,978.32
2018-06-04T10:06:26.809Z,978.35
2018-06-04T10:07:26.763Z,978.32
2018-06-04T10:08:26.783Z,978.36
2018-06-04T10:09:26.673Z,978.30
2018-06-04T10:10:26.636Z,978.33
2018-06-04T10:11:26.584Z,978.30
2018-06-04T10:12:26.539Z,978.28
2018-06-04T10:13:26.494Z,978.29
2018-06-04T10:14:26.450Z,978.34
2018-06-04T10:15:26.404Z,978.29
2018-06-04T10:16:26.366Z,978.30
2018-06-04T10:17:26.317Z,978.27
2018-06-04T10:18:26.274Z,978.23
2018-06-04T10:19:26.233Z,978.24
2018-06-04T10:20:26.181Z,978.20
2018-06-04T10:21:26.138Z,978.20
2018-06-04T10:22:26.103Z,978.21
2018-06-04T10:23:26.047Z,978.23
2018-06-04T10:24:26.003Z,978.20
2018-06-04T10:25:25.964Z,978.24
2018-06-04T10:26:25.914Z,978.21
2018-06-04T10:27:25.871Z,978.28
2018-06-04T10:28:25.827Z,978.19
2018-06-04T10:29:25.786Z,978.20
2018-06-04T10:30:25.736Z,978.21
2018-06-04T10:31:25.693Z,978.18
2018-06-04T10:32:25.646Z,978.15
2018-06-04T10:33:25.615Z,978.13
2018-06-04T10:34:25.561Z,978.14
2018-06-04T10:35:25.511Z,978.15
2018-06-04T10:36:25.468Z,978.10
2018-06-04T10:37:25.424Z,978.10
2018-06-04T10:38:25.380Z,978.11
2018-06-04T10:39:25.361Z,978.08
2018-06-04T10:40:25.293Z,978.08
2018-06-04T10:41:25.252Z,978.12
2018-06-04T10:42:25.199Z,978.13
2018-06-04T10:43:25.154Z,978.11
2018-06-04T10:44:25.112Z,978.08
2018-06-04T10:45:25.065Z,978.06
2018-06-04T10:46:25.020Z,978.08
2018-06-04T10:47:24.974Z,978.03
2018-06-04T10:48:24.928Z,978.00
2018-06-04T10:49:24.890Z,977.95
2018-06-04T10:50:24.840Z,977.93
2018-06-04T10:51:24.793Z,978.00
2018-06-04T10:52:24.749Z,977.96
2018-06-04T10:53:24.703Z,977.90
2018-06-04T10:54:24.659Z,977.94
2018-06-04T10:55:24.613Z,977.93
2018-06-04T10:56:24.569Z,977.99
2018-06-04T10:57:24.523Z,977.99
2018-06-04T10:58:24.480Z,977.98
2018-06-04T10:59:24.433Z,977.97
2018-06-04T11:00:24.385Z,978.00
2018-06-04T11:01:24.341Z,977.99
2018-06-04T11:02:24.297Z,977.96
2018-06-04T11:03:24.251Z,977.98
2018-06-04T11:04:24.209Z,977.98
2018-06-04T11:05:24.164Z,977.95
2018-06-04T11:06:24.117Z,977.92
2018-06-04T11:07:24.071Z,977.89
2018-06-04T11:08:24.032Z,977.87
2018-06-04T11:09:23.983Z,977.87
2018-06-04T11:10:23.938Z,977.87
2018-06-04T11:11:23.894Z,977.85
2018-06-04T11:12:23.847Z,977.87
2018-06-04T11:13:23.802Z,977.85
2018-06-04T11:14:23.757Z,977.91
2018-06-04T11:15:23.712Z,977.92
2018-06-04T11:16:23.667Z,977.87
2018-06-04T11:17:23.627Z,977.93
2018-06-04T11:18:23.575Z,977.90
2018-06-04T11:19:23.531Z,977.83
2018-06-04T11:20:23.489Z,977.84
2018-06-04T11:21:23.446Z,977.81
2018-06-04T11:22:23.396Z,977.81
2018-06-04T11:23:23.347Z,977.82
2018-06-04T11:24:23.304Z,977.78
2018-06-04T11:25:23.259Z,977.78
2018-06-04T11:26:23.218Z,977.79
2018-06-04T11:27:23.169Z,977.76
2018-06-04T11:28:23.121Z,977.76
2018-06-04T11:29:23.085Z,977.70
2018-06-04T11:30:23.051Z,977.75
2018-06-04T11:31:22.985Z,977.70
2018-06-04T11:32:22.942Z,977.72
2018-06-04T11:33:22.897Z,977.70
2018-06-04T11:34:22.856Z,977.75
2018-06-04T11:35:22.804Z,977.74
2018-06-04T11:36:22.761Z,977.69
2018-06-04T11:37:22.721Z,977.64
2018-06-04T11:38:22.670Z,977.72
2018-06-04T11:39:22.626Z,977.69
2018-06-04T11:40:22.579Z,977.75
2018-06-04T11:41:22.536Z,977.72
2018-06-04T11:42:22.502Z,977.64
2018-06-04T11:43:22.446Z,977.66
2018-06-04T11:44:22.402Z,977.68
2018-06-04T11:45:22.357Z,977.58
2018-06-04T11:46:22.314Z,977.65
2018-06-04T11:47:22.269Z,977.58
2018-06-04T11:48:22.224Z,977.54
2018-06-04T11:49:22.180Z,977.57
2018-06-04T11:50:22.136Z,977.56
2018-06-04T11:51:22.092Z,977.51
2018-06-04T11:52:22.054Z,977.54
2018-06-04T11:53:22.007Z,977.50
2018-06-04T11:54:21.967Z,977.52
2018-06-04T11:55:21.914Z,977.49
2018-06-04T11:56:21.886Z,977.52
2018-06-04T11:57:21.828Z,977.51
2018-06-04T11:58:21.783Z,977.46
2018-06-04T11:59:21.739Z,977.47
2018-06-04T12:00:21.695Z,977.48
2018-06-04T12:01:21.652Z,977.48
2018-06-04T12:02:21.607Z,977.42
2018-06-04T12:03:21.564Z,977.41
2018-06-04T12:04:21.519Z,977.39
2018-06-04T12:05:21.475Z,977.38
2018-06-04T12:06:21.430Z,977.41
2018-06-04T12:07:21.385Z,977.43
2018-06-04T12:08:21.341Z,977.37
2018-06-04T12:09:21.297Z,977.40
2018-06-04T12:10:21.253Z,977.42
2018-06-04T12:11:21.222Z,977.39
2018-06-04T12:12:21.163Z,977.41
2018-06-04T12:13:21.119Z,977.40
2018-06-04T12:14:21.076Z,977.39
2018-06-04T12:15:21.031Z,977.34
2018-06-04T12:16:20.987Z,977.38
2018-06-04T12:17:20.947Z,977.31
2018-06-04T12:18:20.898Z,977.34
2018-06-04T12:19:20.855Z,977.33
2018-06-04T12:20:20.810Z,977.32
2018-06-04T12:21:20.862Z,977.31
2018-06-04T12:22:20.722Z,977.29
2018-06-04T12:23:20.678Z,977.26
2018-06-04T12:24:20.634Z,977.19
2018-06-04T12:25:20.590Z,977.23
2018-06-04T12:26:20.552Z,977.22
2018-06-04T12:27:20.506Z,977.18
2018-06-04T12:28:20.463Z,977.21